Rocky Mount, VA

1:53 AM EST on February 07, 2016 (GMT -0500)
Foggy Ridge Road | | Change Station
CLOSE
Current Station
Personal Weather Station
Location: Rocky Mount, VA
Elevation: 1125 ft
Nearby Weather Stations

Elev 1125 ft 37.05 °N, 79.89 °W | Updated 6 seconds ago

Partly Cloudy
Partly Cloudy
25.4 °F
Feels Like 25 °F
N
0.0
Wind Variable Wind from SSE
Gusts 0.0 mph

Today
High -- | Low -- °F
--% Chance of Precip.
Yesterday
High -- | Low -- °F
Precip. -- in
Pressure 30.26 in
Visibility 10.0 miles
Clouds Clear
Windchill 25 °F
Dew Point 22 °F
Humidity 85%
Rainfall 0.00 in
Snow Depth Not available.
7:17 AM 5:50 PM
Waning Crescent, 2% visible
METAR KROA 070554Z 35004KT 10SM CLR M01/M07 A3023 RMK AO2 SLP246 T10111067 10039 21028 56009
Pressure 30.26 in
Visibility 10.0 miles
Clouds Clear
Windchill 25 °F
Dew Point 22 °F
Humidity 85%
Rainfall 0.00 in
Snow Depth Not available.
7:17 AM 5:50 PM
Waning Crescent, 2% visible
METAR KROA 070554Z 35004KT 10SM CLR M01/M07 A3023 RMK AO2 SLP246 T10111067 10039 21028 56009

10-Day Weather Forecast

Almanac

Astronomy

Feb. 07, 2016 Rise Set
Actual Time
Civil Twilight
Nautical Twilight
Astronomical Twilight
Moon
Length of Visible Light
Length of Day
Tomorrow will be .
, % of the Moon is Illuminated

Today's Extremes

State Highs State Lows

Community

WunderPhotos

Upload Photos

1,891,174 photos uploaded!

WunderBlog® & News

Nearby

Air Quality

  Air Quality AQ Index Pollutant
Not available.

Snow Depth

Station Depth Elevation

Earthquake Activity

City Distance Mag. Time & Date
Minimum magnitude displayed is 2.5.

Coastal Water Temperatures

Place Temperature

Stations

Nearby Weather Stations

Station Location Temp. Windchill Dew Point Humidity Wind Precip. Elev Updated Type
                   

Watches & Warnings

There are currently no watches in effect.